createdAt,value
2022-10-11T00:01:28.820Z,62402.38
2022-10-11T00:03:57.505Z,62402.38
2022-10-11T00:06:24.178Z,62402.38
2022-10-11T00:08:50.954Z,62402.38
2022-10-11T00:11:18.681Z,62402.38
2022-10-11T00:13:45.324Z,62402.38
2022-10-11T00:16:13.056Z,62402.38
2022-10-11T00:18:40.280Z,62402.38
2022-10-11T00:21:12.039Z,98380.47
2022-10-11T00:23:39.880Z,98381.28
2022-10-11T00:26:09.245Z,98375.88
2022-10-11T00:28:37.440Z,98376.97
2022-10-11T00:31:07.805Z,62402.38
2022-10-11T00:33:35.111Z,62402.38
2022-10-11T00:36:02.190Z,62402.38
2022-10-11T00:38:31.972Z,62402.38
2022-10-11T00:40:59.502Z,62402.38
2022-10-11T00:43:31.905Z,62402.38
2022-10-11T00:46:25.883Z,62402.38
2022-10-11T00:49:00.392Z,62402.38
2022-10-11T00:51:39.298Z,62402.38
2022-10-11T00:54:11.205Z,98412.13
2022-10-11T00:56:40.093Z,98407.50
2022-10-11T00:59:12.201Z,98419.69
2022-10-11T01:01:39.101Z,98423.19
2022-10-11T01:04:06.013Z,98425.91
2022-10-11T01:06:33.859Z,98425.91
2022-10-11T01:09:00.587Z,98427.78
2022-10-11T01:11:30.850Z,98428.59
2022-10-11T01:14:16.910Z,98431.00
2022-10-11T01:16:55.237Z,98436.41
2022-10-11T01:19:41.011Z,98438.56
2022-10-11T01:22:20.414Z,62402.38
2022-10-11T01:25:07.110Z,62402.38
2022-10-11T01:27:57.492Z,62402.38
2022-10-11T01:30:28.143Z,62402.38
2022-10-11T01:33:05.176Z,62402.38
2022-10-11T01:35:39.206Z,62402.38
2022-10-11T01:38:12.600Z,62402.38
2022-10-11T01:40:45.673Z,62402.38
2022-10-11T01:43:14.341Z,62402.38
2022-10-11T01:45:43.544Z,62402.38
2022-10-11T01:48:12.652Z,62402.38
2022-10-11T01:50:42.702Z,62402.38
2022-10-11T01:53:40.113Z,62402.38
2022-10-11T01:56:21.373Z,62402.38
2022-10-11T01:58:59.357Z,62402.38
2022-10-11T02:01:40.289Z,62402.38
2022-10-11T02:04:16.867Z,62402.38
2022-10-11T02:06:51.098Z,62402.38
2022-10-11T02:09:24.485Z,62402.38
2022-10-11T02:11:54.415Z,62402.38
2022-10-11T02:14:25.430Z,62402.38
2022-10-11T02:16:57.670Z,62402.38
2022-10-11T02:19:27.497Z,62402.38
2022-10-11T02:22:00.750Z,62402.38
2022-10-11T02:24:31.167Z,62402.38
2022-10-11T02:27:00.111Z,62402.38
2022-10-11T02:29:29.684Z,62402.38
2022-10-11T02:32:00.480Z,62402.38
2022-10-11T02:34:31.422Z,62402.38
2022-10-11T02:37:03.880Z,62402.38
2022-10-11T02:39:37.272Z,62402.38
2022-10-11T02:42:09.607Z,62402.38
2022-10-11T02:44:41.136Z,62402.38
2022-10-11T02:47:10.414Z,62402.38
2022-10-11T02:49:37.363Z,62402.38
2022-10-11T02:52:05.673Z,62402.38
2022-10-11T02:54:32.497Z,62402.38
2022-10-11T02:56:59.124Z,62402.38
2022-10-11T02:59:25.790Z,62402.38
2022-10-11T03:01:52.539Z,62402.38
2022-10-11T03:04:20.627Z,62402.38
2022-10-11T03:06:47.242Z,62402.38
2022-10-11T03:09:13.949Z,62402.38
2022-10-11T03:11:40.642Z,62402.38
2022-10-11T03:14:07.275Z,62402.38
2022-10-11T03:16:34.177Z,62402.38
2022-10-11T03:19:00.956Z,62402.38
2022-10-11T03:21:29.155Z,62402.38
2022-10-11T03:23:55.821Z,62402.38
2022-10-11T03:26:22.407Z,62402.38
2022-10-11T03:28:49.213Z,62402.38
2022-10-11T03:31:16.001Z,62402.38
2022-10-11T03:33:42.758Z,62402.38
2022-10-11T03:36:09.586Z,62402.38
2022-10-11T03:38:37.836Z,62402.38
2022-10-11T03:41:04.695Z,62402.38
2022-10-11T03:43:31.467Z,62402.38
2022-10-11T03:45:58.340Z,62402.38
2022-10-11T03:48:25.126Z,62402.38
2022-10-11T03:50:51.753Z,62402.38
2022-10-11T03:53:18.597Z,62402.38
2022-10-11T03:55:46.714Z,62402.38
2022-10-11T03:58:13.480Z,62402.38
2022-10-11T04:00:40.380Z,62402.38
2022-10-11T04:03:07.043Z,62402.38
2022-10-11T04:05:33.932Z,62402.38
2022-10-11T04:08:00.735Z,62402.38
2022-10-11T04:10:27.582Z,62402.38
2022-10-11T04:12:55.661Z,62402.38
2022-10-11T04:15:22.667Z,62402.38
2022-10-11T04:17:49.572Z,62402.38
2022-10-11T04:20:16.510Z,62402.38
2022-10-11T04:22:43.212Z,62402.38
2022-10-11T04:25:10.254Z,62402.38
2022-10-11T04:27:37.116Z,62402.38
2022-10-11T04:30:06.920Z,62402.38
2022-10-11T04:32:33.823Z,62402.38
2022-10-11T04:35:00.487Z,62402.38
2022-10-11T04:37:27.320Z,62402.38
2022-10-11T04:39:54.150Z,62402.38
2022-10-11T04:42:21.231Z,62402.38
2022-10-11T04:44:47.952Z,62402.38
2022-10-11T04:47:17.016Z,62402.38
2022-10-11T04:49:43.916Z,62402.38
2022-10-11T04:52:10.764Z,62402.38
2022-10-11T04:54:37.592Z,98438.56
2022-10-11T04:57:04.502Z,98438.56
2022-10-11T04:59:31.496Z,98579.53
2022-10-11T05:01:58.630Z,98583.84
2022-10-11T05:04:27.445Z,98579.41
2022-10-11T05:06:54.305Z,98578.69
2022-10-11T05:09:21.808Z,98579.63
2022-10-11T05:11:48.759Z,98578.66
2022-10-11T05:14:15.635Z,98585.19
2022-10-11T05:16:42.323Z,98589.94
2022-10-11T05:19:09.145Z,98591.22
2022-10-11T05:21:37.823Z,98588.78
2022-10-11T05:24:05.471Z,98600.84
2022-10-11T05:26:32.279Z,98607.47
2022-10-11T05:28:59.424Z,98601.31
2022-10-11T05:31:26.165Z,98606.56
2022-10-11T05:33:53.067Z,98610.06
2022-10-11T05:36:19.927Z,98605.59
2022-10-11T05:38:48.487Z,98614.34
2022-10-11T05:41:18.330Z,98617.81
2022-10-11T05:43:46.040Z,98624.22
2022-10-11T05:46:13.774Z,98620.94
2022-10-11T05:48:41.379Z,98622.19
2022-10-11T05:51:10.446Z,98627.66
2022-10-11T05:53:38.385Z,98625.97
2022-10-11T05:56:17.899Z,98635.91
2022-10-11T05:58:44.575Z,98631.75
2022-10-11T06:01:17.005Z,98637.59
2022-10-11T06:03:44.002Z,98635.00
2022-10-11T06:06:11.100Z,98648.28
2022-10-11T06:08:37.820Z,98648.16
2022-10-11T06:11:12.277Z,98652.59
2022-10-11T06:13:39.342Z,98654.53
2022-10-11T06:16:07.133Z,98663.50
2022-10-11T06:18:34.956Z,98662.41
2022-10-11T06:21:01.683Z,98663.00
2022-10-11T06:23:29.129Z,98664.72
2022-10-11T06:25:57.361Z,98667.53
2022-10-11T06:28:26.633Z,98672.94
2022-10-11T06:30:53.758Z,98671.56
2022-10-11T06:33:20.568Z,98672.19
2022-10-11T06:35:48.063Z,98682.34
2022-10-11T06:38:15.154Z,98679.94
2022-10-11T06:40:42.202Z,98682.06
2022-10-11T06:43:09.363Z,98682.19
2022-10-11T06:45:38.499Z,98688.16
2022-10-11T06:48:06.031Z,98688.38
2022-10-11T06:50:58.082Z,98690.38
2022-10-11T06:53:20.619Z,98692.38
2022-10-11T06:55:47.628Z,98696.06
2022-10-11T06:58:14.641Z,98700.63
2022-10-11T07:00:42.944Z,98703.16
2022-10-11T07:03:09.892Z,98703.16
2022-10-11T07:05:40.131Z,62402.38
2022-10-11T07:08:06.926Z,98713.50
2022-10-11T07:10:36.089Z,76116.13
2022-10-11T07:13:02.777Z,62402.38
2022-10-11T07:15:30.086Z,62402.38
2022-10-11T07:17:58.550Z,62402.38
2022-10-11T07:20:25.427Z,62402.38
2022-10-11T07:22:52.564Z,62402.38
2022-10-11T07:25:19.449Z,62402.38
2022-10-11T07:27:46.566Z,62402.38
2022-10-11T07:30:13.584Z,62402.38
2022-10-11T07:32:40.631Z,62402.38
2022-10-11T07:35:09.309Z,62402.38
2022-10-11T07:37:36.178Z,98713.50
2022-10-11T07:40:03.979Z,98733.72
2022-10-11T07:42:31.031Z,98739.03
2022-10-11T07:44:57.655Z,98728.09
2022-10-11T07:47:24.507Z,62402.38
2022-10-11T07:49:51.475Z,62402.38
2022-10-11T07:52:19.561Z,62402.38
2022-10-11T07:54:48.516Z,98731.88
2022-10-11T07:57:15.617Z,62402.38
2022-10-11T07:59:47.829Z,62402.38
2022-10-11T08:02:16.634Z,62402.38
2022-10-11T08:04:43.556Z,62402.38
2022-10-11T08:07:10.355Z,62402.38
2022-10-11T08:09:38.770Z,62402.38
2022-10-11T08:12:07.121Z,62402.38
2022-10-11T08:14:34.571Z,62402.38
2022-10-11T08:17:02.347Z,98741.19
2022-10-11T08:19:29.731Z,98744.63
2022-10-11T08:21:57.529Z,98744.25
2022-10-11T08:24:25.232Z,98745.94
2022-10-11T08:26:53.748Z,98752.34
2022-10-11T08:29:20.629Z,98753.69
2022-10-11T08:31:47.434Z,98745.41
2022-10-11T08:34:14.728Z,98750.81
2022-10-11T08:36:41.608Z,98751.13
2022-10-11T08:39:08.838Z,98752.28
2022-10-11T08:41:41.333Z,98756.13
2022-10-11T08:44:26.731Z,98763.19
2022-10-11T08:47:00.671Z,98752.66
2022-10-11T08:49:31.556Z,98761.84
2022-10-11T08:52:04.862Z,98762.91
2022-10-11T08:54:39.641Z,98765.84
2022-10-11T08:57:07.997Z,98765.03
2022-10-11T08:59:45.322Z,98757.13
2022-10-11T09:02:21.718Z,98756.06
2022-10-11T09:04:51.643Z,98753.63
2022-10-11T09:07:26.183Z,62402.38
2022-10-11T09:10:08.367Z,62402.38
2022-10-11T09:12:47.446Z,62402.38
2022-10-11T09:15:32.075Z,62402.38
2022-10-11T09:18:19.421Z,62402.38
2022-10-11T09:20:56.570Z,62402.38
2022-10-11T09:23:45.686Z,62402.38
2022-10-11T09:26:20.187Z,62402.38
2022-10-11T09:29:00.895Z,62402.38
2022-10-11T09:31:30.887Z,62402.38
2022-10-11T09:34:01.615Z,62402.38
2022-10-11T09:36:34.027Z,62402.38
2022-10-11T09:39:07.648Z,62402.38
2022-10-11T09:41:41.887Z,62402.38
2022-10-11T09:44:20.461Z,62402.38
2022-10-11T09:46:49.727Z,62402.38
2022-10-11T09:49:19.415Z,62402.38
2022-10-11T09:51:52.395Z,62402.38
2022-10-11T09:54:22.364Z,62402.38
2022-10-11T09:56:49.016Z,62402.38
2022-10-11T09:59:26.422Z,62402.38
2022-10-11T10:02:29.811Z,62402.38
2022-10-11T10:05:14.106Z,62402.38
2022-10-11T10:08:04.087Z,62402.38
2022-10-11T10:10:39.402Z,62402.38
2022-10-11T10:13:18.334Z,62402.38
2022-10-11T10:15:48.205Z,62402.38
2022-10-11T10:18:24.010Z,62402.38
2022-10-11T10:20:55.055Z,62402.38
2022-10-11T10:23:24.793Z,62402.38
2022-10-11T10:25:53.675Z,62402.38
2022-10-11T10:28:22.872Z,62402.38
2022-10-11T10:30:54.549Z,62402.38
2022-10-11T10:33:23.784Z,62402.38
2022-10-11T10:35:56.149Z,62402.38
2022-10-11T10:38:28.275Z,62402.38
2022-10-11T10:40:58.447Z,62402.38
2022-10-11T10:43:28.277Z,62402.38
2022-10-11T10:46:10.693Z,62402.38
2022-10-11T10:49:19.110Z,62402.38
2022-10-11T10:51:44.972Z,62402.38
2022-10-11T10:54:23.455Z,62402.38
2022-10-11T10:56:53.737Z,62402.38
2022-10-11T10:59:41.852Z,62402.38
2022-10-11T11:02:39.214Z,62402.38
2022-10-11T11:05:13.485Z,62402.38
2022-10-11T11:07:47.544Z,62402.38
2022-10-11T11:10:19.331Z,62402.38
2022-10-11T11:12:52.486Z,62402.38
2022-10-11T11:15:31.401Z,62402.38
2022-10-11T11:18:16.870Z,62402.38
2022-10-11T11:20:57.895Z,62402.38
2022-10-11T11:23:35.805Z,62402.38
2022-10-11T11:26:10.641Z,62402.38
2022-10-11T11:29:02.649Z,62402.38
2022-10-11T11:31:43.810Z,62402.38
2022-10-11T11:34:20.270Z,62402.38
2022-10-11T11:36:50.436Z,62402.38
2022-10-11T11:39:23.706Z,62402.38
2022-10-11T11:41:56.860Z,62402.38
2022-10-11T11:44:30.304Z,62402.38
2022-10-11T11:47:01.855Z,62402.38
2022-10-11T11:49:34.299Z,62402.38
2022-10-11T11:52:03.142Z,62402.38
2022-10-11T11:54:44.762Z,62402.38
2022-10-11T11:57:23.981Z,62402.38
2022-10-11T11:59:57.176Z,62402.38
2022-10-11T12:02:45.243Z,62402.38
2022-10-11T12:05:16.222Z,62402.38
2022-10-11T12:07:50.968Z,62402.38
2022-10-11T12:10:30.152Z,62402.38
2022-10-11T12:13:19.842Z,62402.38
2022-10-11T12:16:09.842Z,62402.38
2022-10-11T12:18:49.712Z,62402.38
2022-10-11T12:21:22.911Z,62402.38
2022-10-11T12:23:52.085Z,62402.38
2022-10-11T12:26:45.827Z,62402.38
2022-10-11T12:29:28.874Z,62402.38
2022-10-11T12:32:49.903Z,62402.38
2022-10-11T12:35:42.667Z,62402.38
2022-10-11T12:38:20.323Z,62402.38
2022-10-11T12:40:50.231Z,62402.38
2022-10-11T12:43:57.099Z,62402.38
2022-10-11T12:47:11.597Z,62402.38
2022-10-11T12:49:51.838Z,62402.38
2022-10-11T12:52:28.397Z,62402.38
2022-10-11T12:55:12.751Z,62402.38
2022-10-11T12:58:14.102Z,62402.38
2022-10-11T13:01:14.557Z,62402.38
2022-10-11T13:03:49.533Z,62402.38
2022-10-11T13:06:19.611Z,62402.38
2022-10-11T13:08:53.452Z,62402.38
2022-10-11T13:11:23.250Z,62402.38
2022-10-11T13:13:54.204Z,62402.38
2022-10-11T13:16:25.178Z,62402.38
2022-10-11T13:18:57.199Z,62402.38
2022-10-11T13:21:29.915Z,62402.38
2022-10-11T13:24:00.670Z,62402.38
2022-10-11T13:26:30.317Z,62402.38
2022-10-11T13:28:58.249Z,62402.38
2022-10-11T13:31:26.539Z,62402.38
2022-10-11T13:33:55.601Z,62402.38
2022-10-11T13:36:26.722Z,62402.38
2022-10-11T13:38:56.639Z,62402.38
2022-10-11T13:41:26.256Z,62402.38
2022-10-11T13:43:54.981Z,62402.38
2022-10-11T13:46:23.644Z,62402.38
2022-10-11T13:48:59.673Z,62402.38
2022-10-11T13:51:33.678Z,62402.38
2022-10-11T13:54:02.853Z,62402.38
2022-10-11T13:56:33.112Z,62402.38
2022-10-11T13:59:01.498Z,62402.38
2022-10-11T14:01:36.782Z,62402.38
2022-10-11T14:04:07.500Z,62402.38
2022-10-11T14:06:44.442Z,62402.38
2022-10-11T14:09:20.980Z,62402.38
2022-10-11T14:11:50.211Z,62402.38
2022-10-11T14:14:40.187Z,62402.38
2022-10-11T14:17:14.310Z,62402.38
2022-10-11T14:19:43.082Z,62402.38
2022-10-11T14:22:14.910Z,62402.38
2022-10-11T14:24:42.805Z,62402.38
2022-10-11T14:27:17.597Z,62402.38
2022-10-11T14:30:06.171Z,62402.38
2022-10-11T14:32:34.977Z,62402.38
2022-10-11T14:35:04.792Z,62402.38
2022-10-11T14:37:32.025Z,62402.38
2022-10-11T14:39:59.244Z,62402.38
2022-10-11T14:42:27.479Z,62402.38
2022-10-11T14:44:55.256Z,62402.38
2022-10-11T14:47:22.132Z,62402.38
2022-10-11T14:49:49.573Z,62402.38
2022-10-11T14:52:17.997Z,62402.38
2022-10-11T14:54:46.034Z,62402.38
2022-10-11T14:57:13.492Z,62402.38
2022-10-11T14:59:41.118Z,62402.38
2022-10-11T15:02:11.164Z,62402.38
2022-10-11T15:04:38.491Z,62402.38
2022-10-11T15:07:06.171Z,62402.38
2022-10-11T15:09:35.709Z,62402.38
2022-10-11T15:12:03.473Z,62402.38
2022-10-11T15:14:30.729Z,62402.38
2022-10-11T15:16:58.221Z,62402.38
2022-10-11T15:19:26.295Z,62402.38
2022-10-11T15:21:53.860Z,62402.38
2022-10-11T15:24:21.811Z,62402.38
2022-10-11T15:26:51.647Z,62402.38
2022-10-11T15:29:22.497Z,62402.38
2022-10-11T15:31:51.389Z,62402.38
2022-10-11T15:34:18.922Z,62402.38
2022-10-11T15:36:47.290Z,62402.38
2022-10-11T15:39:25.647Z,62402.38
2022-10-11T15:41:55.024Z,62402.38
2022-10-11T15:44:22.873Z,62402.38
2022-10-11T15:46:50.081Z,62402.38
2022-10-11T15:49:17.714Z,62402.38
2022-10-11T15:51:44.536Z,62402.38
2022-10-11T15:54:11.414Z,62402.38
2022-10-11T15:56:38.153Z,62402.38
2022-10-11T15:59:07.194Z,62402.38
2022-10-11T16:01:36.308Z,62402.38
2022-10-11T16:04:04.459Z,62402.38
2022-10-11T16:06:34.134Z,62402.38
2022-10-11T16:09:02.413Z,62402.38
2022-10-11T16:11:30.871Z,62402.38
2022-10-11T16:13:57.893Z,62402.38
2022-10-11T16:16:27.041Z,62402.38
2022-10-11T16:18:55.090Z,62402.38
2022-10-11T16:21:23.951Z,62402.38
2022-10-11T16:23:51.184Z,62402.38
2022-10-11T16:26:18.530Z,62402.38
2022-10-11T16:28:48.477Z,62402.38
2022-10-11T16:31:21.113Z,62402.38
2022-10-11T16:33:53.022Z,62402.38
2022-10-11T16:36:40.567Z,62402.38
2022-10-11T16:39:11.740Z,62402.38
2022-10-11T16:41:42.792Z,62402.38
2022-10-11T16:44:14.234Z,62402.38
2022-10-11T16:46:42.021Z,62402.38
2022-10-11T16:49:10.740Z,62402.38
2022-10-11T16:51:38.223Z,62402.38
2022-10-11T16:54:07.128Z,62402.38
2022-10-11T16:56:39.559Z,62402.38
2022-10-11T16:59:08.983Z,62402.38
2022-10-11T17:01:38.161Z,62402.38
2022-10-11T17:04:06.195Z,62402.38
2022-10-11T17:06:34.816Z,62402.38
2022-10-11T17:09:02.665Z,62402.38
2022-10-11T17:11:29.847Z,62402.38
2022-10-11T17:13:57.447Z,62402.38
2022-10-11T17:16:26.509Z,62402.38
2022-10-11T17:18:55.839Z,62402.38
2022-10-11T17:21:23.325Z,62402.38
2022-10-11T17:23:52.375Z,62402.38
2022-10-11T17:26:21.321Z,62402.38
2022-10-11T17:28:48.887Z,62402.38
2022-10-11T17:31:16.222Z,62402.38
2022-10-11T17:33:44.715Z,62402.38
2022-10-11T17:36:18.694Z,62402.38
2022-10-11T17:38:45.835Z,62402.38
2022-10-11T17:41:14.958Z,62402.38
2022-10-11T17:43:43.443Z,62402.38
2022-10-11T17:46:13.964Z,62402.38
2022-10-11T17:48:42.847Z,62402.38
2022-10-11T17:51:13.168Z,62402.38
2022-10-11T17:53:41.299Z,62402.38
2022-10-11T17:56:10.233Z,62402.38
2022-10-11T17:58:40.309Z,62402.38
2022-10-11T18:01:11.884Z,62402.38
2022-10-11T18:03:40.242Z,62402.38
2022-10-11T18:06:10.154Z,98639.69
2022-10-11T18:08:40.656Z,98642.91
2022-10-11T18:11:10.746Z,98640.41
2022-10-11T18:13:42.387Z,98654.53
2022-10-11T18:16:11.478Z,98648.09
2022-10-11T18:18:39.254Z,98648.97
2022-10-11T18:21:06.691Z,98648.88
2022-10-11T18:23:36.599Z,98640.50
2022-10-11T18:26:09.687Z,98644.56
2022-10-11T18:28:38.245Z,98643.97
2022-10-11T18:31:12.505Z,98646.13
2022-10-11T18:33:42.095Z,98642.66
2022-10-11T18:36:14.238Z,98641.31
2022-10-11T18:38:46.745Z,98635.94
2022-10-11T18:41:16.483Z,98637.06
2022-10-11T18:43:49.324Z,98638.25
2022-10-11T18:46:16.866Z,98636.88
2022-10-11T18:48:46.615Z,98633.16
2022-10-11T18:51:16.598Z,98630.97
2022-10-11T18:53:45.328Z,98625.47
2022-10-11T18:56:14.940Z,98636.03
2022-10-11T18:58:45.470Z,98623.44
2022-10-11T19:01:17.706Z,98630.19
2022-10-11T19:03:50.660Z,98626.13
2022-10-11T19:06:20.453Z,98633.03
2022-10-11T19:08:50.263Z,98633.78
2022-10-11T19:11:22.775Z,98623.81
2022-10-11T19:13:56.519Z,98631.59
2022-10-11T19:16:26.851Z,98621.16
2022-10-11T19:18:55.184Z,98629.31
2022-10-11T19:21:23.754Z,98626.72
2022-10-11T19:23:52.317Z,98631.66
2022-10-11T19:26:22.163Z,98628.84
2022-10-11T19:28:56.920Z,98623.69
2022-10-11T19:31:24.756Z,98630.84
2022-10-11T19:33:52.696Z,98627.69
2022-10-11T19:36:22.926Z,98628.03
2022-10-11T19:38:51.646Z,98635.50
2022-10-11T19:41:21.498Z,98637.00
2022-10-11T19:43:49.182Z,98631.09
2022-10-11T19:46:38.382Z,98635.75
2022-10-11T19:49:09.209Z,98632.13
2022-10-11T19:51:38.583Z,98631.53
2022-10-11T19:54:08.754Z,98631.44
2022-10-11T19:56:37.015Z,98629.78
2022-10-11T19:59:08.018Z,98627.69
2022-10-11T20:01:37.415Z,98633.16
2022-10-11T20:04:07.165Z,98626.63
2022-10-11T20:06:39.517Z,98638.06
2022-10-11T20:09:28.391Z,98631.06
2022-10-11T20:11:56.942Z,98630.00
2022-10-11T20:14:25.705Z,98629.66
2022-10-11T20:16:55.596Z,98632.81
2022-10-11T20:19:30.701Z,98633.72
2022-10-11T20:22:00.682Z,98626.94
2022-10-11T20:24:33.414Z,98626.47
2022-10-11T20:27:03.137Z,98624.03
2022-10-11T20:29:31.113Z,98621.56
2022-10-11T20:31:59.893Z,98625.06
2022-10-11T20:34:27.841Z,98623.75
2022-10-11T20:36:55.525Z,98621.34
2022-10-11T20:39:23.856Z,98622.84
2022-10-11T20:41:51.192Z,98634.13
2022-10-11T20:44:18.925Z,98630.72
2022-10-11T20:46:46.259Z,98621.31
2022-10-11T20:49:16.653Z,98625.16
2022-10-11T20:51:44.078Z,98622.50
2022-10-11T20:54:12.024Z,98626.28
2022-10-11T20:56:41.414Z,98632.25
2022-10-11T20:59:09.465Z,98635.03
2022-10-11T21:01:52.106Z,98630.00
2022-10-11T21:04:21.191Z,98626.16
2022-10-11T21:06:49.474Z,98623.91
2022-10-11T21:09:18.330Z,98624.47
2022-10-11T21:11:46.024Z,98624.22
2022-10-11T21:14:13.569Z,98623.75
2022-10-11T21:16:42.201Z,98626.06
2022-10-11T21:19:13.758Z,98619.03
2022-10-11T21:21:43.337Z,98619.88
2022-10-11T21:24:10.548Z,98618.31
2022-10-11T21:26:37.650Z,98618.78
2022-10-11T21:29:04.885Z,98613.75
2022-10-11T21:31:34.383Z,98615.69
2022-10-11T21:34:02.315Z,98619.41
2022-10-11T21:36:29.873Z,98616.00
2022-10-11T21:38:58.376Z,98612.16
2022-10-11T21:41:29.385Z,98616.31
2022-10-11T21:43:57.052Z,98605.03
2022-10-11T21:46:41.695Z,98612.81
2022-10-11T21:49:09.477Z,98608.59
2022-10-11T21:51:36.486Z,98605.94
2022-10-11T21:54:05.377Z,98606.44
2022-10-11T21:56:32.643Z,98610.69
2022-10-11T21:58:59.728Z,98611.94
2022-10-11T22:01:27.065Z,98611.75
2022-10-11T22:03:54.752Z,98610.53
2022-10-11T22:06:21.910Z,98608.91
2022-10-11T22:08:50.330Z,98609.19
2022-10-11T22:11:18.827Z,98602.22
2022-10-11T22:13:46.667Z,98597.31
2022-10-11T22:16:14.657Z,98604.75
2022-10-11T22:18:42.402Z,98597.75
2022-10-11T22:21:12.572Z,98596.13
2022-10-11T22:23:39.705Z,98595.97
2022-10-11T22:26:07.865Z,98598.63
2022-10-11T22:28:36.868Z,98603.34
2022-10-11T22:31:05.807Z,98592.91
2022-10-11T22:33:33.302Z,98584.41
2022-10-11T22:36:02.212Z,98584.13
2022-10-11T22:38:28.877Z,98587.06
2022-10-11T22:40:58.594Z,98595.13
2022-10-11T22:43:25.926Z,98587.78
2022-10-11T22:45:54.039Z,98576.88
2022-10-11T22:48:21.732Z,98580.88
2022-10-11T22:50:49.167Z,98585.25
2022-10-11T22:53:16.191Z,98588.22
2022-10-11T22:55:43.349Z,98580.66
2022-10-11T22:58:10.120Z,98586.25
2022-10-11T23:00:36.991Z,98573.34
2022-10-11T23:03:07.519Z,98575.59
2022-10-11T23:05:34.576Z,98592.69
2022-10-11T23:08:01.595Z,98582.59
2022-10-11T23:10:28.747Z,98583.84
2022-10-11T23:12:55.454Z,98580.78
2022-10-11T23:15:22.250Z,98585.38
2022-10-11T23:17:49.132Z,98577.00
2022-10-11T23:20:17.456Z,98578.16
2022-10-11T23:22:44.683Z,98578.25
2022-10-11T23:25:11.642Z,98585.38
2022-10-11T23:27:38.725Z,98584.34
2022-10-11T23:30:07.002Z,98588.22
2022-10-11T23:32:35.354Z,98592.75
2022-10-11T23:35:02.804Z,98587.19
2022-10-11T23:37:31.498Z,98596.25
2022-10-11T23:39:58.894Z,98590.88
2022-10-11T23:42:25.629Z,98590.88
2022-10-11T23:44:54.117Z,98587.41
2022-10-11T23:47:20.923Z,98591.53
2022-10-11T23:49:50.155Z,98591.63
2022-10-11T23:52:16.805Z,98589.00
2022-10-11T23:54:45.138Z,98584.31
2022-10-11T23:57:12.971Z,98593.59
2022-10-11T23:59:39.825Z,98584.75
